sensor_id;sensor_type;location;lat;lon;timestamp;pressure;altitude;pressure_sealevel;temperature;humidity
43450;BME280;29041;42.266;23.110;2023-02-18T00:01:00;96716.41;;;0.24;83.28
43450;BME280;29041;42.266;23.110;2023-02-18T00:03:48;96718.22;;;0.12;82.50
43450;BME280;29041;42.266;23.110;2023-02-18T00:06:35;96704.69;;;-0.04;83.34
43450;BME280;29041;42.266;23.110;2023-02-18T00:09:23;96707.72;;;0.00;83.86
43450;BME280;29041;42.266;23.110;2023-02-18T00:12:10;96701.50;;;-0.06;84.00
43450;BME280;29041;42.266;23.110;2023-02-18T00:14:58;96712.84;;;-0.05;84.03
43450;BME280;29041;42.266;23.110;2023-02-18T00:17:46;96715.28;;;-0.15;84.66
43450;BME280;29041;42.266;23.110;2023-02-18T00:20:33;96694.03;;;0.03;84.15
43450;BME280;29041;42.266;23.110;2023-02-18T00:23:21;96706.44;;;-0.09;84.70
43450;BME280;29041;42.266;23.110;2023-02-18T00:26:11;96705.06;;;0.00;84.28
43450;BME280;29041;42.266;23.110;2023-02-18T00:29:02;96712.00;;;0.42;83.37
43450;BME280;29041;42.266;23.110;2023-02-18T00:31:49;96704.56;;;0.27;82.68
43450;BME280;29041;42.266;23.110;2023-02-18T00:34:38;96700.56;;;0.01;83.87
43450;BME280;29041;42.266;23.110;2023-02-18T00:37:25;96689.56;;;-0.32;84.88
43450;BME280;29041;42.266;23.110;2023-02-18T00:40:12;96685.78;;;-0.24;85.28
43450;BME280;29041;42.266;23.110;2023-02-18T00:42:59;96675.09;;;-0.18;84.88
43450;BME280;29041;42.266;23.110;2023-02-18T00:45:46;96657.41;;;-0.29;84.72
43450;BME280;29041;42.266;23.110;2023-02-18T00:48:34;96664.22;;;-0.33;84.78
43450;BME280;29041;42.266;23.110;2023-02-18T00:51:23;96658.13;;;-0.34;85.66
43450;BME280;29041;42.266;23.110;2023-02-18T00:54:11;96650.19;;;-0.10;84.19
43450;BME280;29041;42.266;23.110;2023-02-18T00:56:58;96653.22;;;-0.30;84.92
43450;BME280;29041;42.266;23.110;2023-02-18T00:59:45;96636.19;;;-0.22;85.19
43450;BME280;29041;42.266;23.110;2023-02-18T01:02:33;96652.16;;;-0.29;84.11
43450;BME280;29041;42.266;23.110;2023-02-18T01:05:20;96644.94;;;-0.45;85.84
43450;BME280;29041;42.266;23.110;2023-02-18T01:08:10;96635.19;;;-0.45;86.22
43450;BME280;29041;42.266;23.110;2023-02-18T01:10:58;96645.28;;;-0.42;85.95
43450;BME280;29041;42.266;23.110;2023-02-18T01:13:45;96633.69;;;-0.53;86.36
43450;BME280;29041;42.266;23.110;2023-02-18T01:16:32;96627.25;;;-0.57;86.51
43450;BME280;29041;42.266;23.110;2023-02-18T01:19:19;96636.88;;;-0.51;86.24
43450;BME280;29041;42.266;23.110;2023-02-18T01:22:06;96639.53;;;-0.51;86.57
43450;BME280;29041;42.266;23.110;2023-02-18T01:24:55;96616.72;;;-0.57;85.33
43450;BME280;29041;42.266;23.110;2023-02-18T01:27:42;96614.19;;;-0.63;86.69
43450;BME280;29041;42.266;23.110;2023-02-18T01:30:29;96623.00;;;-0.46;85.42
43450;BME280;29041;42.266;23.110;2023-02-18T01:33:16;96625.88;;;-0.71;87.20
43450;BME280;29041;42.266;23.110;2023-02-18T01:36:05;96627.25;;;-0.69;87.90
43450;BME280;29041;42.266;23.110;2023-02-18T01:38:52;96615.56;;;-0.61;86.84
43450;BME280;29041;42.266;23.110;2023-02-18T01:41:43;96620.16;;;-0.68;87.43
43450;BME280;29041;42.266;23.110;2023-02-18T01:44:32;96633.91;;;-0.66;87.72
43450;BME280;29041;42.266;23.110;2023-02-18T01:47:20;96630.81;;;-0.75;87.48
43450;BME280;29041;42.266;23.110;2023-02-18T01:50:07;96638.81;;;-0.82;87.89
43450;BME280;29041;42.266;23.110;2023-02-18T01:52:54;96640.63;;;-0.94;88.90
43450;BME280;29041;42.266;23.110;2023-02-18T01:55:42;96647.78;;;-0.83;88.19
43450;BME280;29041;42.266;23.110;2023-02-18T01:58:31;96642.72;;;-0.84;87.60
43450;BME280;29041;42.266;23.110;2023-02-18T02:01:21;96648.31;;;-0.92;88.51
43450;BME280;29041;42.266;23.110;2023-02-18T02:04:08;96648.78;;;-0.96;87.74
43450;BME280;29041;42.266;23.110;2023-02-18T02:06:55;96656.22;;;-1.04;88.83
43450;BME280;29041;42.266;23.110;2023-02-18T02:09:42;96661.97;;;-0.84;86.96
43450;BME280;29041;42.266;23.110;2023-02-18T02:12:42;96641.09;;;-0.97;87.15
43450;BME280;29041;42.266;23.110;2023-02-18T02:15:38;96651.06;;;-0.99;88.39
43450;BME280;29041;42.266;23.110;2023-02-18T02:18:38;96650.78;;;-1.09;88.63
43450;BME280;29041;42.266;23.110;2023-02-18T02:22:03;96657.63;;;-0.78;86.74
43450;BME280;29041;42.266;23.110;2023-02-18T02:25:14;96667.63;;;-0.68;87.35
43450;BME280;29041;42.266;23.110;2023-02-18T02:28:28;96663.78;;;-0.84;86.36
43450;BME280;29041;42.266;23.110;2023-02-18T02:31:45;96665.00;;;-1.10;88.11
43450;BME280;29041;42.266;23.110;2023-02-18T02:34:55;96656.69;;;-0.96;87.61
43450;BME280;29041;42.266;23.110;2023-02-18T02:37:58;96663.72;;;-1.08;88.14
43450;BME280;29041;42.266;23.110;2023-02-18T02:40:53;96662.28;;;-1.04;87.86
43450;BME280;29041;42.266;23.110;2023-02-18T02:43:51;96664.69;;;-1.02;87.83
43450;BME280;29041;42.266;23.110;2023-02-18T02:46:44;96665.34;;;-1.07;88.18
43450;BME280;29041;42.266;23.110;2023-02-18T02:49:38;96660.94;;;-0.94;87.08
43450;BME280;29041;42.266;23.110;2023-02-18T02:52:32;96658.31;;;-1.25;88.32
43450;BME280;29041;42.266;23.110;2023-02-18T02:55:20;96665.78;;;-1.22;87.73
43450;BME280;29041;42.266;23.110;2023-02-18T02:58:13;96663.28;;;-1.47;89.18
43450;BME280;29041;42.266;23.110;2023-02-18T03:01:16;96658.16;;;-1.61;90.43
43450;BME280;29041;42.266;23.110;2023-02-18T03:04:15;96665.13;;;-1.66;90.65
43450;BME280;29041;42.266;23.110;2023-02-18T03:07:10;96658.19;;;-1.49;90.76
43450;BME280;29041;42.266;23.110;2023-02-18T03:10:18;96639.63;;;-1.54;88.82
43450;BME280;29041;42.266;23.110;2023-02-18T03:13:17;96647.09;;;-1.51;90.17
43450;BME280;29041;42.266;23.110;2023-02-18T03:16:17;96640.97;;;-1.63;91.21
43450;BME280;29041;42.266;23.110;2023-02-18T03:19:13;96644.72;;;-1.40;90.78
43450;BME280;29041;42.266;23.110;2023-02-18T03:22:05;96649.28;;;-1.48;91.19
43450;BME280;29041;42.266;23.110;2023-02-18T03:24:55;96652.97;;;-1.37;89.62
43450;BME280;29041;42.266;23.110;2023-02-18T03:27:49;96638.94;;;-1.19;90.03
43450;BME280;29041;42.266;23.110;2023-02-18T03:30:41;96650.19;;;-1.12;88.48
43450;BME280;29041;42.266;23.110;2023-02-18T03:33:34;96644.13;;;-1.54;90.40
43450;BME280;29041;42.266;23.110;2023-02-18T03:36:24;96651.81;;;-1.71;90.42
43450;BME280;29041;42.266;23.110;2023-02-18T03:39:14;96647.41;;;-1.29;89.11
43450;BME280;29041;42.266;23.110;2023-02-18T03:42:01;96651.00;;;-1.53;89.76
43450;BME280;29041;42.266;23.110;2023-02-18T03:44:50;96646.22;;;-1.63;90.17
43450;BME280;29041;42.266;23.110;2023-02-18T03:47:37;96656.50;;;-1.73;89.89
43450;BME280;29041;42.266;23.110;2023-02-18T03:50:24;96660.00;;;-1.61;90.66
43450;BME280;29041;42.266;23.110;2023-02-18T03:53:11;96663.38;;;-1.91;90.48
43450;BME280;29041;42.266;23.110;2023-02-18T03:55:58;96667.75;;;-2.03;89.97
43450;BME280;29041;42.266;23.110;2023-02-18T03:58:47;96696.56;;;-2.09;91.19
43450;BME280;29041;42.266;23.110;2023-02-18T04:01:35;96701.66;;;-2.14;92.23
43450;BME280;29041;42.266;23.110;2023-02-18T04:04:23;96698.72;;;-2.24;92.76
43450;BME280;29041;42.266;23.110;2023-02-18T04:07:10;96707.16;;;-2.15;92.62
43450;BME280;29041;42.266;23.110;2023-02-18T04:09:57;96695.28;;;-2.25;92.73
43450;BME280;29041;42.266;23.110;2023-02-18T04:12:45;96706.53;;;-1.73;91.78
43450;BME280;29041;42.266;23.110;2023-02-18T04:15:32;96708.06;;;-1.17;88.94
43450;BME280;29041;42.266;23.110;2023-02-18T04:18:21;96716.47;;;-1.76;90.52
43450;BME280;29041;42.266;23.110;2023-02-18T04:21:08;96714.34;;;-1.85;91.60
43450;BME280;29041;42.266;23.110;2023-02-18T04:23:55;96722.00;;;-1.84;92.29
43450;BME280;29041;42.266;23.110;2023-02-18T04:26:43;96730.50;;;-1.82;92.27
43450;BME280;29041;42.266;23.110;2023-02-18T04:29:31;96722.47;;;-1.87;93.03
43450;BME280;29041;42.266;23.110;2023-02-18T04:32:19;96706.78;;;-2.00;92.91
43450;BME280;29041;42.266;23.110;2023-02-18T04:35:07;96708.19;;;-1.98;93.10
43450;BME280;29041;42.266;23.110;2023-02-18T04:37:54;96705.47;;;-1.91;93.16
43450;BME280;29041;42.266;23.110;2023-02-18T04:40:41;96700.22;;;-1.54;91.07
43450;BME280;29041;42.266;23.110;2023-02-18T04:43:42;96701.31;;;-1.80;92.25
43450;BME280;29041;42.266;23.110;2023-02-18T04:46:29;96697.22;;;-1.08;89.47
43450;BME280;29041;42.266;23.110;2023-02-18T04:49:16;96688.38;;;-1.63;91.20
43450;BME280;29041;42.266;23.110;2023-02-18T04:52:05;96707.03;;;-1.83;92.44
43450;BME280;29041;42.266;23.110;2023-02-18T04:54:52;96700.81;;;-1.89;93.09
43450;BME280;29041;42.266;23.110;2023-02-18T04:57:39;96689.03;;;-2.05;94.13
43450;BME280;29041;42.266;23.110;2023-02-18T05:00:28;96688.03;;;-1.85;92.97
43450;BME280;29041;42.266;23.110;2023-02-18T05:03:15;96701.25;;;-1.92;92.67
43450;BME280;29041;42.266;23.110;2023-02-18T05:06:05;96696.28;;;-1.82;91.96
43450;BME280;29041;42.266;23.110;2023-02-18T05:08:54;96707.09;;;-1.90;92.83
43450;BME280;29041;42.266;23.110;2023-02-18T05:11:42;96705.47;;;-1.91;92.06
43450;BME280;29041;42.266;23.110;2023-02-18T05:14:29;96698.81;;;-2.12;92.63
43450;BME280;29041;42.266;23.110;2023-02-18T05:17:16;96701.56;;;-2.26;93.97
43450;BME280;29041;42.266;23.110;2023-02-18T05:20:03;96689.63;;;-2.47;95.54
43450;BME280;29041;42.266;23.110;2023-02-18T05:22:51;96701.09;;;-2.41;95.01
43450;BME280;29041;42.266;23.110;2023-02-18T05:25:40;96701.63;;;-2.32;95.06
43450;BME280;29041;42.266;23.110;2023-02-18T05:28:27;96700.63;;;-2.31;94.99
43450;BME280;29041;42.266;23.110;2023-02-18T05:31:14;96703.78;;;-2.22;94.49
43450;BME280;29041;42.266;23.110;2023-02-18T05:34:01;96697.53;;;-2.28;94.29
43450;BME280;29041;42.266;23.110;2023-02-18T05:36:48;96698.59;;;-2.11;94.46
43450;BME280;29041;42.266;23.110;2023-02-18T05:39:36;96690.06;;;-2.06;93.68
43450;BME280;29041;42.266;23.110;2023-02-18T05:42:24;96691.81;;;-2.00;93.58
43450;BME280;29041;42.266;23.110;2023-02-18T05:45:14;96698.53;;;-2.04;93.71
43450;BME280;29041;42.266;23.110;2023-02-18T05:48:03;96704.31;;;-1.95;92.89
43450;BME280;29041;42.266;23.110;2023-02-18T05:50:52;96699.63;;;-1.74;92.33
43450;BME280;29041;42.266;23.110;2023-02-18T05:53:40;96725.25;;;-1.82;91.85
43450;BME280;29041;42.266;23.110;2023-02-18T05:56:27;96731.59;;;-1.71;91.70
43450;BME280;29041;42.266;23.110;2023-02-18T05:59:16;96717.34;;;-1.14;89.29
43450;BME280;29041;42.266;23.110;2023-02-18T06:02:03;96719.66;;;-1.55;90.56
43450;BME280;29041;42.266;23.110;2023-02-18T06:04:50;96716.03;;;-1.72;90.70
43450;BME280;29041;42.266;23.110;2023-02-18T06:07:37;96727.88;;;-1.82;91.38
43450;BME280;29041;42.266;23.110;2023-02-18T06:10:25;96734.59;;;-1.67;91.84
43450;BME280;29041;42.266;23.110;2023-02-18T06:13:12;96728.94;;;-1.34;89.77
43450;BME280;29041;42.266;23.110;2023-02-18T06:16:00;96729.75;;;-1.33;89.88
43450;BME280;29041;42.266;23.110;2023-02-18T06:18:53;96726.16;;;-0.78;89.23
43450;BME280;29041;42.266;23.110;2023-02-18T06:21:40;96728.47;;;-0.82;87.15
43450;BME280;29041;42.266;23.110;2023-02-18T06:24:27;96726.38;;;-0.37;85.08
43450;BME280;29041;42.266;23.110;2023-02-18T06:27:14;96731.84;;;0.56;79.56
43450;BME280;29041;42.266;23.110;2023-02-18T06:30:01;96727.31;;;0.28;79.49
43450;BME280;29041;42.266;23.110;2023-02-18T06:32:52;96718.47;;;0.22;80.29
43450;BME280;29041;42.266;23.110;2023-02-18T06:35:39;96721.78;;;0.18;81.73
43450;BME280;29041;42.266;23.110;2023-02-18T06:38:27;96740.81;;;1.42;77.88
43450;BME280;29041;42.266;23.110;2023-02-18T06:41:14;96736.72;;;1.34;74.94
43450;BME280;29041;42.266;23.110;2023-02-18T06:44:02;96731.28;;;0.95;76.49
43450;BME280;29041;42.266;23.110;2023-02-18T06:46:49;96729.59;;;2.03;73.66
43450;BME280;29041;42.266;23.110;2023-02-18T06:49:38;96732.63;;;3.83;64.95
43450;BME280;29041;42.266;23.110;2023-02-18T06:52:25;96740.66;;;3.93;63.50
43450;BME280;29041;42.266;23.110;2023-02-18T06:55:15;96731.19;;;4.02;61.90
43450;BME280;29041;42.266;23.110;2023-02-18T06:58:02;96717.53;;;5.00;57.69
43450;BME280;29041;42.266;23.110;2023-02-18T07:00:50;96711.22;;;5.52;55.66
43450;BME280;29041;42.266;23.110;2023-02-18T07:03:37;96723.59;;;3.51;62.20
43450;BME280;29041;42.266;23.110;2023-02-18T07:06:25;96723.66;;;3.24;64.55
43450;BME280;29041;42.266;23.110;2023-02-18T07:09:12;96728.72;;;1.97;70.09
43450;BME280;29041;42.266;23.110;2023-02-18T07:12:00;96720.44;;;2.11;70.70
43450;BME280;29041;42.266;23.110;2023-02-18T07:14:47;96735.75;;;2.09;70.27
43450;BME280;29041;42.266;23.110;2023-02-18T07:17:34;96730.88;;;1.83;72.63
43450;BME280;29041;42.266;23.110;2023-02-18T07:20:21;96722.81;;;1.73;73.04
43450;BME280;29041;42.266;23.110;2023-02-18T07:23:10;96725.41;;;1.39;73.85
43450;BME280;29041;42.266;23.110;2023-02-18T07:26:05;96730.66;;;1.85;72.81
43450;BME280;29041;42.266;23.110;2023-02-18T07:28:53;96736.84;;;2.08;73.59
43450;BME280;29041;42.266;23.110;2023-02-18T07:31:40;96734.72;;;2.27;71.85
43450;BME280;29041;42.266;23.110;2023-02-18T07:34:27;96737.94;;;1.43;76.16
43450;BME280;29041;42.266;23.110;2023-02-18T07:37:14;96730.19;;;1.54;76.42
43450;BME280;29041;42.266;23.110;2023-02-18T07:40:03;96725.91;;;1.87;74.78
43450;BME280;29041;42.266;23.110;2023-02-18T07:42:50;96725.50;;;2.12;74.54
43450;BME280;29041;42.266;23.110;2023-02-18T07:45:38;96732.63;;;2.51;70.55
43450;BME280;29041;42.266;23.110;2023-02-18T07:48:25;96729.25;;;2.78;70.69
43450;BME280;29041;42.266;23.110;2023-02-18T07:51:15;96729.66;;;3.46;68.06
43450;BME280;29041;42.266;23.110;2023-02-18T07:54:02;96723.53;;;3.13;68.93
43450;BME280;29041;42.266;23.110;2023-02-18T07:56:51;96712.53;;;3.32;67.93
43450;BME280;29041;42.266;23.110;2023-02-18T07:59:40;96722.72;;;4.10;64.99
43450;BME280;29041;42.266;23.110;2023-02-18T08:02:27;96721.38;;;4.56;62.58
43450;BME280;29041;42.266;23.110;2023-02-18T08:05:15;96704.75;;;4.97;61.13
43450;BME280;29041;42.266;23.110;2023-02-18T08:08:02;96694.91;;;7.02;55.01
43450;BME280;29041;42.266;23.110;2023-02-18T08:10:53;96697.13;;;8.57;51.33
43450;BME280;29041;42.266;23.110;2023-02-18T08:13:42;96673.91;;;10.28;45.88
43450;BME280;29041;42.266;23.110;2023-02-18T08:16:29;96677.13;;;8.74;48.04
43450;BME280;29041;42.266;23.110;2023-02-18T08:19:16;96681.59;;;8.79;47.63
43450;BME280;29041;42.266;23.110;2023-02-18T08:24:54;96654.34;;;7.00;53.68
43450;BME280;29041;42.266;23.110;2023-02-18T08:27:54;96650.13;;;10.91;43.95
43450;BME280;29041;42.266;23.110;2023-02-18T08:34:23;96646.06;;;11.53;41.29
43450;BME280;29041;42.266;23.110;2023-02-18T08:37:49;96644.91;;;11.77;41.68
43450;BME280;29041;42.266;23.110;2023-02-18T08:41:12;96619.63;;;11.10;41.50
43450;BME280;29041;42.266;23.110;2023-02-18T08:44:02;96671.56;;;9.09;47.32
43450;BME280;29041;42.266;23.110;2023-02-18T08:46:57;96669.06;;;9.50;46.31
43450;BME280;29041;42.266;23.110;2023-02-18T08:50:00;96662.00;;;10.35;45.05
43450;BME280;29041;42.266;23.110;2023-02-18T08:52:51;96634.75;;;11.42;41.76
43450;BME280;29041;42.266;23.110;2023-02-18T08:56:18;96631.34;;;9.28;44.48
43450;BME280;29041;42.266;23.110;2023-02-18T08:59:11;96628.53;;;10.97;41.64
43450;BME280;29041;42.266;23.110;2023-02-18T09:02:22;96622.59;;;11.45;40.62
43450;BME280;29041;42.266;23.110;2023-02-18T09:05:21;96654.50;;;11.61;40.76
43450;BME280;29041;42.266;23.110;2023-02-18T09:08:19;96641.81;;;10.79;41.79
43450;BME280;29041;42.266;23.110;2023-02-18T09:11:23;96645.88;;;10.21;43.84
43450;BME280;29041;42.266;23.110;2023-02-18T09:14:12;96652.66;;;7.49;51.68
43450;BME280;29041;42.266;23.110;2023-02-18T09:17:00;96635.50;;;7.85;51.29
43450;BME280;29041;42.266;23.110;2023-02-18T09:19:47;96647.41;;;7.39;52.87
43450;BME280;29041;42.266;23.110;2023-02-18T09:22:36;96634.53;;;8.53;49.31
43450;BME280;29041;42.266;23.110;2023-02-18T09:25:24;96649.59;;;7.96;49.64
43450;BME280;29041;42.266;23.110;2023-02-18T09:28:21;96669.28;;;7.75;50.78
43450;BME280;29041;42.266;23.110;2023-02-18T09:31:11;96658.25;;;8.12;50.44
43450;BME280;29041;42.266;23.110;2023-02-18T09:34:01;96636.31;;;7.85;50.81
43450;BME280;29041;42.266;23.110;2023-02-18T09:36:48;96636.91;;;8.06;51.32
43450;BME280;29041;42.266;23.110;2023-02-18T09:39:37;96628.59;;;8.32;51.37
43450;BME280;29041;42.266;23.110;2023-02-18T09:42:29;96629.28;;;8.67;49.60
43450;BME280;29041;42.266;23.110;2023-02-18T09:45:17;96621.81;;;8.83;50.47
43450;BME280;29041;42.266;23.110;2023-02-18T09:48:04;96618.69;;;9.14;50.06
43450;BME280;29041;42.266;23.110;2023-02-18T09:53:37;96611.13;;;9.68;47.42
43450;BME280;29041;42.266;23.110;2023-02-18T09:56:30;96607.81;;;10.46;45.90
43450;BME280;29041;42.266;23.110;2023-02-18T09:59:39;96596.31;;;11.42;44.23
43450;BME280;29041;42.266;23.110;2023-02-18T10:02:34;96575.78;;;11.23;43.40
43450;BME280;29041;42.266;23.110;2023-02-18T10:05:42;96589.38;;;11.72;42.91
43450;BME280;29041;42.266;23.110;2023-02-18T10:32:11;96545.03;;;14.16;35.72
43450;BME280;29041;42.266;23.110;2023-02-18T10:40:26;96525.38;;;13.76;36.10
43450;BME280;29041;42.266;23.110;2023-02-18T10:54:52;96497.38;;;15.04;33.62
43450;BME280;29041;42.266;23.110;2023-02-18T10:57:49;96493.88;;;14.70;33.27
43450;BME280;29041;42.266;23.110;2023-02-18T11:03:15;96473.13;;;15.42;32.04
43450;BME280;29041;42.266;23.110;2023-02-18T11:06:03;96470.56;;;15.45;32.83
43450;BME280;29041;42.266;23.110;2023-02-18T11:08:52;96455.50;;;15.11;33.33
43450;BME280;29041;42.266;23.110;2023-02-18T11:27:10;96444.75;;;14.68;33.65
43450;BME280;29041;42.266;23.110;2023-02-18T11:30:00;96435.16;;;15.38;32.91
43450;BME280;29041;42.266;23.110;2023-02-18T11:35:33;96429.03;;;15.16;32.03
43450;BME280;29041;42.266;23.110;2023-02-18T11:41:36;96414.78;;;15.90;28.68
43450;BME280;29041;42.266;23.110;2023-02-18T11:44:28;96408.88;;;17.26;27.02
43450;BME280;29041;42.266;23.110;2023-02-18T11:47:21;96411.81;;;17.05;26.93
43450;BME280;29041;42.266;23.110;2023-02-18T11:50:20;96403.75;;;16.64;26.25
43450;BME280;29041;42.266;23.110;2023-02-18T11:53:26;96413.28;;;16.17;27.16
43450;BME280;29041;42.266;23.110;2023-02-18T11:56:17;96389.16;;;18.72;24.49
43450;BME280;29041;42.266;23.110;2023-02-18T11:59:05;96386.44;;;16.98;26.25
43450;BME280;29041;42.266;23.110;2023-02-18T12:01:59;96387.41;;;16.20;27.55
43450;BME280;29041;42.266;23.110;2023-02-18T12:04:51;96375.88;;;15.58;30.51
43450;BME280;29041;42.266;23.110;2023-02-18T12:07:43;96362.19;;;15.79;30.43
43450;BME280;29041;42.266;23.110;2023-02-18T12:10:33;96369.22;;;16.33;29.17
43450;BME280;29041;42.266;23.110;2023-02-18T12:13:24;96345.06;;;16.72;29.36
43450;BME280;29041;42.266;23.110;2023-02-18T12:16:21;96350.88;;;16.87;30.05
43450;BME280;29041;42.266;23.110;2023-02-18T12:22:43;96347.50;;;17.06;29.29
43450;BME280;29041;42.266;23.110;2023-02-18T12:25:37;96350.38;;;17.13;29.37
43450;BME280;29041;42.266;23.110;2023-02-18T12:28:44;96346.78;;;16.20;30.35
43450;BME280;29041;42.266;23.110;2023-02-18T12:31:44;96342.97;;;17.10;28.77
43450;BME280;29041;42.266;23.110;2023-02-18T12:37:58;96321.78;;;17.32;29.08
43450;BME280;29041;42.266;23.110;2023-02-18T12:40:56;96325.13;;;16.93;30.26
43450;BME280;29041;42.266;23.110;2023-02-18T12:43:54;96322.41;;;15.54;32.22
43450;BME280;29041;42.266;23.110;2023-02-18T12:50:37;96315.75;;;17.22;29.53
43450;BME280;29041;42.266;23.110;2023-02-18T12:53:40;96314.44;;;17.68;29.09
43450;BME280;29041;42.266;23.110;2023-02-18T12:56:50;96308.81;;;19.21;26.83
43450;BME280;29041;42.266;23.110;2023-02-18T13:00:01;96301.16;;;20.15;25.50
43450;BME280;29041;42.266;23.110;2023-02-18T13:03:11;96303.50;;;19.05;26.78
43450;BME280;29041;42.266;23.110;2023-02-18T13:06:15;96295.09;;;17.89;28.18
43450;BME280;29041;42.266;23.110;2023-02-18T13:09:15;96281.84;;;19.66;25.89
43450;BME280;29041;42.266;23.110;2023-02-18T13:12:10;96286.69;;;18.33;27.10
43450;BME280;29041;42.266;23.110;2023-02-18T13:15:03;96277.78;;;19.26;27.82
43450;BME280;29041;42.266;23.110;2023-02-18T13:17:56;96261.56;;;17.81;27.83
43450;BME280;29041;42.266;23.110;2023-02-18T13:20:47;96268.59;;;18.64;27.15
43450;BME280;29041;42.266;23.110;2023-02-18T13:23:38;96269.97;;;17.21;29.35
43450;BME280;29041;42.266;23.110;2023-02-18T13:26:29;96283.66;;;17.08;28.39
43450;BME280;29041;42.266;23.110;2023-02-18T13:29:23;96278.91;;;16.89;28.16
43450;BME280;29041;42.266;23.110;2023-02-18T13:32:18;96276.56;;;17.75;26.71
43450;BME280;29041;42.266;23.110;2023-02-18T13:35:18;96264.06;;;17.51;26.57
43450;BME280;29041;42.266;23.110;2023-02-18T13:38:25;96283.34;;;17.46;26.94
43450;BME280;29041;42.266;23.110;2023-02-18T13:41:17;96271.09;;;18.30;26.18
43450;BME280;29041;42.266;23.110;2023-02-18T13:45:00;96265.72;;;17.75;26.66
43450;BME280;29041;42.266;23.110;2023-02-18T13:47:48;96265.94;;;17.31;27.91
43450;BME280;29041;42.266;23.110;2023-02-18T13:50:41;96267.97;;;17.53;27.65
43450;BME280;29041;42.266;23.110;2023-02-18T13:53:31;96259.09;;;17.37;28.30
43450;BME280;29041;42.266;23.110;2023-02-18T13:56:25;96254.47;;;16.57;28.33
43450;BME280;29041;42.266;23.110;2023-02-18T13:59:18;96260.13;;;17.32;27.62
43450;BME280;29041;42.266;23.110;2023-02-18T14:02:31;96256.69;;;16.68;29.10
43450;BME280;29041;42.266;23.110;2023-02-18T14:05:23;96263.25;;;16.22;29.60
43450;BME280;29041;42.266;23.110;2023-02-18T14:08:12;96257.78;;;16.34;29.98
43450;BME280;29041;42.266;23.110;2023-02-18T14:11:23;96257.88;;;15.81;29.77
43450;BME280;29041;42.266;23.110;2023-02-18T14:14:35;96254.44;;;15.56;30.27
43450;BME280;29041;42.266;23.110;2023-02-18T14:17:38;96250.16;;;15.55;30.61
43450;BME280;29041;42.266;23.110;2023-02-18T14:23:43;96255.34;;;16.01;30.07
43450;BME280;29041;42.266;23.110;2023-02-18T14:26:45;96249.13;;;15.60;30.28
43450;BME280;29041;42.266;23.110;2023-02-18T14:29:34;96247.91;;;15.45;30.89
43450;BME280;29041;42.266;23.110;2023-02-18T14:32:22;96253.34;;;15.32;30.89
43450;BME280;29041;42.266;23.110;2023-02-18T14:35:21;96244.88;;;15.34;30.79
43450;BME280;29041;42.266;23.110;2023-02-18T14:38:30;96236.00;;;15.86;30.41
43450;BME280;29041;42.266;23.110;2023-02-18T14:41:29;96240.06;;;15.68;30.84
43450;BME280;29041;42.266;23.110;2023-02-18T14:44:37;96248.88;;;15.65;31.11
43450;BME280;29041;42.266;23.110;2023-02-18T14:47:32;96250.06;;;15.39;30.82
43450;BME280;29041;42.266;23.110;2023-02-18T14:50:23;96248.41;;;15.22;31.96
43450;BME280;29041;42.266;23.110;2023-02-18T14:53:13;96252.16;;;15.70;31.07
43450;BME280;29041;42.266;23.110;2023-02-18T14:56:04;96249.25;;;15.51;31.08
43450;BME280;29041;42.266;23.110;2023-02-18T14:58:57;96250.78;;;15.11;32.06
43450;BME280;29041;42.266;23.110;2023-02-18T15:01:47;96236.47;;;15.23;31.25
43450;BME280;29041;42.266;23.110;2023-02-18T15:04:35;96241.66;;;14.91;31.81
43450;BME280;29041;42.266;23.110;2023-02-18T15:07:22;96245.38;;;14.86;32.85
43450;BME280;29041;42.266;23.110;2023-02-18T15:10:13;96250.00;;;15.11;32.96
43450;BME280;29041;42.266;23.110;2023-02-18T15:13:01;96248.41;;;15.10;33.06
43450;BME280;29041;42.266;23.110;2023-02-18T15:15:50;96243.38;;;15.61;32.16
43450;BME280;29041;42.266;23.110;2023-02-18T15:18:43;96249.44;;;15.70;32.21
43450;BME280;29041;42.266;23.110;2023-02-18T15:21:34;96240.53;;;15.70;32.03
43450;BME280;29041;42.266;23.110;2023-02-18T15:24:25;96244.09;;;15.46;32.89
43450;BME280;29041;42.266;23.110;2023-02-18T15:27:14;96250.09;;;15.02;33.25
43450;BME280;29041;42.266;23.110;2023-02-18T15:30:16;96246.06;;;14.83;33.82
43450;BME280;29041;42.266;23.110;2023-02-18T15:33:10;96257.25;;;14.48;34.75
43450;BME280;29041;42.266;23.110;2023-02-18T15:36:05;96260.72;;;14.03;35.37
43450;BME280;29041;42.266;23.110;2023-02-18T15:38:52;96250.34;;;13.50;36.12
43450;BME280;29041;42.266;23.110;2023-02-18T15:52:52;96237.72;;;13.42;37.34
43450;BME280;29041;42.266;23.110;2023-02-18T15:55:41;96238.03;;;13.40;37.26
43450;BME280;29041;42.266;23.110;2023-02-18T15:58:31;96237.56;;;13.38;37.52
43450;BME280;29041;42.266;23.110;2023-02-18T16:01:25;96234.63;;;13.22;37.58
43450;BME280;29041;42.266;23.110;2023-02-18T16:04:14;96238.66;;;13.37;37.38
43450;BME280;29041;42.266;23.110;2023-02-18T16:07:14;96250.09;;;13.04;37.33
43450;BME280;29041;42.266;23.110;2023-02-18T16:10:16;96236.41;;;13.18;38.02
43450;BME280;29041;42.266;23.110;2023-02-18T16:13:04;96246.00;;;13.07;37.48
43450;BME280;29041;42.266;23.110;2023-02-18T16:21:29;96247.19;;;12.88;37.04
43450;BME280;29041;42.266;23.110;2023-02-18T16:24:23;96253.41;;;12.80;38.23
43450;BME280;29041;42.266;23.110;2023-02-18T16:27:15;96240.81;;;12.63;38.61
43450;BME280;29041;42.266;23.110;2023-02-18T16:30:13;96253.50;;;12.53;39.08
43450;BME280;29041;42.266;23.110;2023-02-18T16:33:01;96232.06;;;12.18;39.67
43450;BME280;29041;42.266;23.110;2023-02-18T16:35:49;96267.22;;;12.22;40.67
43450;BME280;29041;42.266;23.110;2023-02-18T16:42:20;96274.16;;;11.62;41.46
43450;BME280;29041;42.266;23.110;2023-02-18T16:47:43;96254.09;;;11.50;42.70
43450;BME280;29041;42.266;23.110;2023-02-18T16:50:34;96271.31;;;11.40;42.68
43450;BME280;29041;42.266;23.110;2023-02-18T16:56:36;96255.84;;;10.88;43.88